createdAt,value
2022-10-13T00:00:51.070Z,19.63
2022-10-13T00:03:18.232Z,21.33
2022-10-13T00:05:48.113Z,14.80
2022-10-13T00:08:19.357Z,19.77
2022-10-13T00:10:48.868Z,19.45
2022-10-13T00:13:16.653Z,22.08
2022-10-13T00:15:45.340Z,21.70
2022-10-13T00:18:12.994Z,16.48
2022-10-13T00:20:48.174Z,19.48
2022-10-13T00:23:16.395Z,19.90
2022-10-13T00:25:44.955Z,13.00
2022-10-13T00:28:12.878Z,22.77
2022-10-13T00:30:40.497Z,20.40
2022-10-13T00:33:09.355Z,15.88
2022-10-13T00:35:44.271Z,20.40
2022-10-13T00:38:12.180Z,15.73
2022-10-13T00:40:48.235Z,21.63
2022-10-13T00:43:26.906Z,16.15
2022-10-13T00:45:55.234Z,23.10
2022-10-13T00:48:26.634Z,20.90
2022-10-13T00:50:54.141Z,15.10
2022-10-13T00:53:24.629Z,16.85
2022-10-13T00:55:54.298Z,17.98
2022-10-13T00:58:24.478Z,16.40
2022-10-13T01:00:53.453Z,18.75
2022-10-13T01:03:21.244Z,16.50
2022-10-13T01:05:48.836Z,20.80
2022-10-13T01:08:17.885Z,17.70
2022-10-13T01:11:17.115Z,19.98
2022-10-13T01:13:56.437Z,17.92
2022-10-13T01:16:30.764Z,18.17
2022-10-13T01:19:16.190Z,19.50
2022-10-13T01:22:14.205Z,18.83
2022-10-13T01:25:18.718Z,19.30
2022-10-13T01:28:04.349Z,19.77
2022-10-13T01:30:37.306Z,19.88
2022-10-13T01:33:25.141Z,21.20
2022-10-13T01:36:04.053Z,13.85
2022-10-13T01:38:45.795Z,17.08
2022-10-13T01:41:18.771Z,15.75
2022-10-13T01:44:03.030Z,21.03
2022-10-13T01:49:01.860Z,20.20
2022-10-13T01:51:31.209Z,23.83
2022-10-13T01:53:58.256Z,17.75
2022-10-13T01:56:25.375Z,17.52
2022-10-13T01:58:54.477Z,18.33
2022-10-13T02:01:47.535Z,18.75
2022-10-13T02:04:34.167Z,20.75
2022-10-13T02:07:35.799Z,18.55
2022-10-13T02:10:12.964Z,19.13
2022-10-13T02:12:49.405Z,16.30
2022-10-13T02:15:21.615Z,18.10
2022-10-13T02:17:50.376Z,15.13
2022-10-13T02:20:20.032Z,20.58
2022-10-13T02:22:52.446Z,18.02
2022-10-13T02:25:19.427Z,25.27
2022-10-13T02:27:46.592Z,17.92
2022-10-13T02:30:21.895Z,16.55
2022-10-13T02:32:49.017Z,19.60
2022-10-13T02:35:16.040Z,19.42
2022-10-13T02:37:43.282Z,23.38
2022-10-13T02:40:10.876Z,15.63
2022-10-13T02:42:37.989Z,16.63
2022-10-13T02:45:05.785Z,18.15
2022-10-13T02:47:32.822Z,16.48
2022-10-13T02:49:59.810Z,18.52
2022-10-13T02:52:26.808Z,17.23
2022-10-13T02:54:53.849Z,15.70
2022-10-13T02:57:20.882Z,18.95
2022-10-13T02:59:48.101Z,18.85
2022-10-13T03:02:15.458Z,17.05
2022-10-13T03:04:42.477Z,16.42
2022-10-13T03:07:09.684Z,14.00
2022-10-13T03:09:36.838Z,14.80
2022-10-13T03:12:04.104Z,19.77
2022-10-13T03:14:31.125Z,17.38
2022-10-13T03:16:58.540Z,16.98
2022-10-13T03:19:26.069Z,18.15
2022-10-13T03:21:53.118Z,19.42
2022-10-13T03:24:20.144Z,18.88
2022-10-13T03:26:47.143Z,18.58
2022-10-13T03:29:15.490Z,19.13
2022-10-13T03:31:42.598Z,16.67
2022-10-13T03:34:11.134Z,14.60
2022-10-13T03:36:38.573Z,18.55
2022-10-13T03:39:06.592Z,15.55
2022-10-13T03:41:33.830Z,22.73
2022-10-13T03:44:01.649Z,17.88
2022-10-13T03:46:30.036Z,18.42
2022-10-13T03:48:57.508Z,17.60
2022-10-13T03:51:25.249Z,18.02
2022-10-13T03:53:52.769Z,22.95
2022-10-13T03:56:22.562Z,16.40
2022-10-13T03:58:55.187Z,21.67
2022-10-13T04:01:24.115Z,17.75
2022-10-13T04:03:52.802Z,17.20
2022-10-13T04:06:19.946Z,22.20
2022-10-13T04:08:46.967Z,22.75
2022-10-13T04:11:15.828Z,20.08
2022-10-13T04:13:43.830Z,16.65
2022-10-13T04:16:20.897Z,24.02
2022-10-13T04:18:56.274Z,23.05
2022-10-13T04:21:24.289Z,24.08
2022-10-13T04:23:51.355Z,21.48
2022-10-13T04:26:21.938Z,19.08
2022-10-13T04:28:50.555Z,29.35
2022-10-13T04:31:17.827Z,17.38
2022-10-13T04:33:45.710Z,25.38
2022-10-13T04:36:14.657Z,17.83
2022-10-13T04:38:42.634Z,18.95
2022-10-13T04:41:11.234Z,18.25
2022-10-13T04:43:38.279Z,17.55
2022-10-13T04:46:08.719Z,24.95
2022-10-13T04:48:35.855Z,18.27
2022-10-13T04:51:05.949Z,17.13
2022-10-13T04:53:33.358Z,22.48
2022-10-13T04:56:02.443Z,20.90
2022-10-13T04:58:29.498Z,19.35
2022-10-13T05:00:58.017Z,22.73
2022-10-13T05:03:26.938Z,19.58
2022-10-13T05:05:54.140Z,23.08
2022-10-13T05:08:21.608Z,24.40
2022-10-13T05:10:57.602Z,20.27
2022-10-13T05:13:25.834Z,27.77
2022-10-13T05:15:52.858Z,19.27
2022-10-13T05:18:19.901Z,22.50
2022-10-13T05:20:47.366Z,24.45
2022-10-13T05:23:16.141Z,19.27
2022-10-13T05:25:43.160Z,24.35
2022-10-13T05:28:10.207Z,22.33
2022-10-13T05:30:37.191Z,19.05
2022-10-13T05:33:04.198Z,19.73
2022-10-13T05:35:31.247Z,21.48
2022-10-13T05:37:58.276Z,21.60
2022-10-13T05:40:25.979Z,20.33
2022-10-13T05:42:53.516Z,18.40
2022-10-13T05:45:21.935Z,24.83
2022-10-13T05:47:48.949Z,21.58
2022-10-13T05:50:15.953Z,17.70
2022-10-13T05:52:43.441Z,18.90
2022-10-13T05:55:13.142Z,21.85
2022-10-13T05:57:43.983Z,24.20
2022-10-13T06:00:15.230Z,19.55
2022-10-13T06:02:58.908Z,18.80
2022-10-13T06:05:32.804Z,26.75
2022-10-13T06:10:27.100Z,21.60
2022-10-13T06:12:56.833Z,26.95
2022-10-13T06:15:27.961Z,19.15
2022-10-13T06:17:55.814Z,22.80
2022-10-13T06:20:23.044Z,21.23
2022-10-13T06:22:50.970Z,18.63
2022-10-13T06:25:18.012Z,30.70
2022-10-13T06:27:45.053Z,21.13
2022-10-13T06:30:15.240Z,22.60
2022-10-13T06:32:43.057Z,22.90
2022-10-13T06:35:10.069Z,21.80
2022-10-13T06:37:37.061Z,23.35
2022-10-13T06:40:05.468Z,22.60
2022-10-13T06:42:34.795Z,18.45
2022-10-13T06:45:01.929Z,23.23
2022-10-13T06:47:28.922Z,16.60
2022-10-13T06:49:56.009Z,24.50
2022-10-13T06:52:23.194Z,24.27
2022-10-13T06:54:50.264Z,18.40
2022-10-13T06:57:17.353Z,24.05
2022-10-13T06:59:44.453Z,23.33
2022-10-13T07:02:11.786Z,23.50
2022-10-13T07:04:39.166Z,20.77
2022-10-13T07:07:06.182Z,22.10
2022-10-13T07:09:33.221Z,22.13
2022-10-13T07:12:00.253Z,17.80
2022-10-13T07:14:28.051Z,24.80
2022-10-13T07:16:55.228Z,22.35
2022-10-13T07:19:22.237Z,24.08
2022-10-13T07:21:49.257Z,21.95
2022-10-13T07:24:16.352Z,25.08
2022-10-13T07:26:43.355Z,26.40
2022-10-13T07:29:10.402Z,25.60
2022-10-13T07:31:37.467Z,25.23
2022-10-13T07:34:05.521Z,29.73
2022-10-13T07:36:33.520Z,20.48
2022-10-13T07:39:01.366Z,25.35
2022-10-13T07:41:29.192Z,25.85
2022-10-13T07:43:57.023Z,36.00
2022-10-13T07:46:25.154Z,31.05
2022-10-13T07:48:54.261Z,23.42
2022-10-13T07:51:22.429Z,27.50
2022-10-13T07:53:49.617Z,30.63
2022-10-13T07:56:17.002Z,29.42
2022-10-13T07:58:46.762Z,31.10
2022-10-13T08:01:14.991Z,30.08
2022-10-13T08:03:47.190Z,26.63
2022-10-13T08:06:17.276Z,27.50
2022-10-13T08:08:44.286Z,29.95
2022-10-13T08:11:16.534Z,27.67
2022-10-13T08:13:49.452Z,31.77
2022-10-13T08:16:17.167Z,27.10
2022-10-13T08:18:44.293Z,28.98
2022-10-13T08:24:02.093Z,24.70
2022-10-13T08:26:29.521Z,28.50
2022-10-13T08:31:46.265Z,27.55
2022-10-13T08:34:13.634Z,23.67
2022-10-13T08:36:40.722Z,27.90
2022-10-13T08:39:08.609Z,32.63
2022-10-13T08:41:43.747Z,27.77
2022-10-13T08:47:31.718Z,29.17
2022-10-13T08:50:03.891Z,32.25
2022-10-13T08:52:47.268Z,24.58
2022-10-13T08:55:24.069Z,24.98
2022-10-13T08:57:51.376Z,25.35
2022-10-13T09:00:18.554Z,24.55
2022-10-13T09:02:50.889Z,25.25
2022-10-13T09:05:41.915Z,32.85
2022-10-13T09:08:19.424Z,21.80
2022-10-13T09:10:51.308Z,25.15
2022-10-13T09:13:19.823Z,28.52
2022-10-13T09:15:50.428Z,24.95
2022-10-13T09:18:17.580Z,25.73
2022-10-13T09:20:44.578Z,23.38
2022-10-13T09:23:14.266Z,25.95
2022-10-13T09:25:48.335Z,21.67
2022-10-13T09:28:30.634Z,24.35
2022-10-13T09:31:19.293Z,21.17
2022-10-13T09:33:48.542Z,24.35
2022-10-13T09:36:16.249Z,33.80
2022-10-13T09:39:05.019Z,24.48
2022-10-13T09:41:33.588Z,26.05
2022-10-13T09:44:09.372Z,24.50
2022-10-13T09:46:38.216Z,25.65
2022-10-13T09:49:28.039Z,33.80
2022-10-13T09:52:01.701Z,26.77
2022-10-13T09:54:40.881Z,27.05
2022-10-13T09:57:43.869Z,23.75
2022-10-13T10:00:24.224Z,22.27
2022-10-13T10:03:10.761Z,24.00
2022-10-13T10:05:43.483Z,19.17
2022-10-13T10:08:58.437Z,18.15
2022-10-13T10:11:48.510Z,19.30
2022-10-13T10:14:28.731Z,20.20
2022-10-13T10:17:13.303Z,17.05
2022-10-13T10:20:01.734Z,19.58
2022-10-13T10:22:40.454Z,24.38
2022-10-13T10:25:19.441Z,17.80
2022-10-13T10:28:01.798Z,18.35
2022-10-13T10:30:31.259Z,16.33
2022-10-13T10:33:13.118Z,15.35
2022-10-13T10:36:20.254Z,15.68
2022-10-13T10:39:09.326Z,14.98
2022-10-13T10:41:39.060Z,12.15
2022-10-13T10:44:10.095Z,18.27
2022-10-13T10:46:42.356Z,16.25
2022-10-13T10:49:32.380Z,15.60
2022-10-13T10:52:01.738Z,16.92
2022-10-13T10:54:49.990Z,17.23
2022-10-13T10:57:29.931Z,17.30
2022-10-13T11:00:04.930Z,12.73
2022-10-13T11:02:46.877Z,11.75
2022-10-13T11:05:14.977Z,13.70
2022-10-13T11:07:43.251Z,12.13
2022-10-13T11:10:13.451Z,11.98
2022-10-13T11:12:52.511Z,16.88
2022-10-13T11:15:31.051Z,13.00
2022-10-13T11:18:01.005Z,11.02
2022-10-13T11:20:33.696Z,14.35
2022-10-13T11:23:00.657Z,15.18
2022-10-13T11:25:47.187Z,9.50
2022-10-13T11:28:23.103Z,12.57
2022-10-13T11:30:55.521Z,11.60
2022-10-13T11:33:38.926Z,12.00
2022-10-13T11:36:29.424Z,14.23
2022-10-13T11:39:28.345Z,12.20
2022-10-13T11:42:21.696Z,13.50
2022-10-13T11:44:58.133Z,12.38
2022-10-13T11:47:43.697Z,24.02
2022-10-13T11:50:18.252Z,18.80
2022-10-13T11:53:14.494Z,19.83
2022-10-13T11:55:47.945Z,25.55
2022-10-13T11:58:24.316Z,19.05
2022-10-13T12:01:08.735Z,17.70
2022-10-13T12:03:42.332Z,19.13
2022-10-13T12:06:33.157Z,25.02
2022-10-13T12:09:15.107Z,21.75
2022-10-13T12:11:43.642Z,21.50
2022-10-13T12:14:30.832Z,24.27
2022-10-13T12:17:00.360Z,19.23
2022-10-13T12:19:30.956Z,22.08
2022-10-13T12:22:00.637Z,16.90
2022-10-13T12:24:30.246Z,19.85
2022-10-13T12:27:10.242Z,17.75
2022-10-13T12:29:40.515Z,19.98
2022-10-13T12:32:28.949Z,19.73
2022-10-13T12:34:58.252Z,22.70
2022-10-13T12:37:30.635Z,19.63
2022-10-13T12:40:01.266Z,16.52
2022-10-13T12:42:32.844Z,18.52
2022-10-13T12:45:01.180Z,15.45
2022-10-13T12:47:49.618Z,17.00
2022-10-13T12:50:25.381Z,18.63
2022-10-13T12:53:08.720Z,18.20
2022-10-13T12:55:45.245Z,25.10
2022-10-13T12:58:22.697Z,20.65
2022-10-13T13:01:20.833Z,16.55
2022-10-13T13:03:54.480Z,15.15
2022-10-13T13:06:29.293Z,14.00
2022-10-13T13:09:21.776Z,20.50
2022-10-13T13:12:02.263Z,14.85
2022-10-13T13:14:38.370Z,16.80
2022-10-13T13:17:17.355Z,17.25
2022-10-13T13:19:49.743Z,16.23
2022-10-13T13:22:17.740Z,21.33
2022-10-13T13:24:45.215Z,23.50
2022-10-13T13:27:20.936Z,16.27
2022-10-13T13:29:48.437Z,15.25
2022-10-13T13:32:20.122Z,17.10
2022-10-13T13:34:48.491Z,18.75
2022-10-13T13:37:37.281Z,18.02
2022-10-13T13:40:06.965Z,16.27
2022-10-13T13:42:34.130Z,17.25
2022-10-13T13:45:01.175Z,22.33
2022-10-13T13:47:28.921Z,19.02
2022-10-13T13:49:57.305Z,18.10
2022-10-13T13:52:28.075Z,21.58
2022-10-13T13:54:58.148Z,18.50
2022-10-13T13:57:30.953Z,24.85
2022-10-13T14:00:00.807Z,29.60
2022-10-13T14:02:30.594Z,17.10
2022-10-13T14:04:58.429Z,25.38
2022-10-13T14:07:25.608Z,15.77
2022-10-13T14:09:53.767Z,14.50
2022-10-13T14:12:22.745Z,20.45
2022-10-13T14:14:49.960Z,18.05
2022-10-13T14:17:17.054Z,18.98
2022-10-13T14:19:44.062Z,19.63
2022-10-13T14:22:11.061Z,18.73
2022-10-13T14:24:38.118Z,24.30
2022-10-13T14:27:05.173Z,18.38
2022-10-13T14:29:32.241Z,19.95
2022-10-13T14:31:59.376Z,21.95
2022-10-13T14:34:26.865Z,23.05
2022-10-13T14:36:54.458Z,20.73
2022-10-13T14:39:21.706Z,19.30
2022-10-13T14:41:48.725Z,17.80
2022-10-13T14:44:15.803Z,20.27
2022-10-13T14:46:43.258Z,22.85
2022-10-13T14:49:10.990Z,19.63
2022-10-13T14:51:38.552Z,21.25
2022-10-13T14:54:06.860Z,18.50
2022-10-13T14:56:34.588Z,19.88
2022-10-13T14:59:04.222Z,19.88
2022-10-13T15:01:33.363Z,17.95
2022-10-13T15:04:01.578Z,16.55
2022-10-13T15:06:29.093Z,18.88
2022-10-13T15:08:57.099Z,17.77
2022-10-13T15:11:25.704Z,15.95
2022-10-13T15:13:53.027Z,17.73
2022-10-13T15:16:22.615Z,20.38
2022-10-13T15:18:49.701Z,16.98
2022-10-13T15:21:17.338Z,23.08
2022-10-13T15:23:45.082Z,20.52
2022-10-13T15:26:14.537Z,17.10
2022-10-13T15:28:45.137Z,16.98
2022-10-13T15:31:13.529Z,18.60
2022-10-13T15:33:51.967Z,20.55
2022-10-13T15:36:20.166Z,17.52
2022-10-13T15:38:47.239Z,18.90
2022-10-13T15:41:14.643Z,27.85
2022-10-13T15:43:42.328Z,25.20
2022-10-13T15:46:13.276Z,17.88
2022-10-13T15:48:40.280Z,23.08
2022-10-13T15:51:19.373Z,16.30
2022-10-13T15:53:47.134Z,22.45
2022-10-13T15:56:14.663Z,16.65
2022-10-13T15:58:44.239Z,21.50
2022-10-13T16:01:12.536Z,21.58
2022-10-13T16:03:39.820Z,16.80
2022-10-13T16:06:09.222Z,25.25
2022-10-13T16:08:37.526Z,22.08
2022-10-13T16:11:09.415Z,17.38
2022-10-13T16:13:36.568Z,25.85
2022-10-13T16:16:04.020Z,23.38
2022-10-13T16:18:33.745Z,17.65
2022-10-13T16:21:07.586Z,19.73
2022-10-13T16:26:05.783Z,23.02
2022-10-13T16:28:48.401Z,28.70
2022-10-13T16:31:16.994Z,20.15
2022-10-13T16:33:45.438Z,23.83
2022-10-13T16:36:17.811Z,20.48
2022-10-13T16:38:46.104Z,29.48
2022-10-13T16:41:18.184Z,34.83
2022-10-13T16:43:46.598Z,25.20
2022-10-13T16:46:16.020Z,24.30
2022-10-13T16:48:44.404Z,24.33
2022-10-13T16:51:20.156Z,41.08
2022-10-13T16:53:49.061Z,24.15
2022-10-13T16:56:21.145Z,31.70
2022-10-13T16:58:59.180Z,26.85
2022-10-13T17:01:27.128Z,28.80
2022-10-13T17:03:54.439Z,52.28
2022-10-13T17:06:25.910Z,25.48
2022-10-13T17:08:52.928Z,30.45
2022-10-13T17:11:22.720Z,32.55
2022-10-13T17:13:50.542Z,25.48
2022-10-13T17:16:18.510Z,26.13
2022-10-13T17:18:46.395Z,23.63
2022-10-13T17:21:15.804Z,26.23
2022-10-13T17:23:48.399Z,29.50
2022-10-13T17:26:16.956Z,28.47
2022-10-13T17:28:44.574Z,31.98
2022-10-13T17:31:17.529Z,26.63
2022-10-13T17:33:45.393Z,27.67
2022-10-13T17:36:16.210Z,26.33
2022-10-13T17:38:44.535Z,29.80
2022-10-13T17:41:12.403Z,32.08
2022-10-13T17:43:40.337Z,29.77
2022-10-13T17:46:35.154Z,30.75
2022-10-13T17:49:00.757Z,33.60
2022-10-13T17:51:28.494Z,38.53
2022-10-13T17:53:59.795Z,36.78
2022-10-13T17:56:28.217Z,30.23
2022-10-13T17:58:57.096Z,32.65
2022-10-13T18:01:28.289Z,28.58
2022-10-13T18:04:01.247Z,32.78
2022-10-13T18:06:36.730Z,37.63
2022-10-13T18:09:07.640Z,29.80
2022-10-13T18:11:36.113Z,25.45
2022-10-13T18:14:03.611Z,31.10
2022-10-13T18:16:30.752Z,29.38
2022-10-13T18:19:01.320Z,26.67
2022-10-13T18:21:29.295Z,25.58
2022-10-13T18:23:59.688Z,21.77
2022-10-13T18:26:31.692Z,27.00
2022-10-13T18:28:58.779Z,23.52
2022-10-13T18:31:31.163Z,24.67
2022-10-13T18:34:08.764Z,29.63
2022-10-13T18:36:47.781Z,29.95
2022-10-13T18:39:21.390Z,32.85
2022-10-13T18:41:50.024Z,29.55
2022-10-13T18:44:17.576Z,28.48
2022-10-13T18:46:44.960Z,29.42
2022-10-13T18:49:14.486Z,23.23
2022-10-13T18:51:42.110Z,22.00
2022-10-13T18:54:09.697Z,19.10
2022-10-13T18:56:36.912Z,18.02
2022-10-13T18:59:06.567Z,19.27
2022-10-13T19:01:35.345Z,16.33
2022-10-13T19:04:03.084Z,18.55
2022-10-13T19:06:32.152Z,15.48
2022-10-13T19:09:04.906Z,16.63
2022-10-13T19:11:33.055Z,18.52
2022-10-13T19:14:00.871Z,17.85
2022-10-13T19:16:30.723Z,15.57
2022-10-13T19:18:58.618Z,20.23
2022-10-13T19:21:26.325Z,15.80
2022-10-13T19:23:54.482Z,15.13
2022-10-13T19:26:28.292Z,16.02
2022-10-13T19:31:26.475Z,19.05
2022-10-13T19:33:55.261Z,24.10
2022-10-13T19:36:25.808Z,22.60
2022-10-13T19:38:54.474Z,20.75
2022-10-13T19:41:22.152Z,24.65
2022-10-13T19:43:50.249Z,20.17
2022-10-13T19:46:17.771Z,21.20
2022-10-13T19:48:45.083Z,19.23
2022-10-13T19:51:13.524Z,22.20
2022-10-13T19:53:41.177Z,20.40
2022-10-13T19:56:09.329Z,28.05
2022-10-13T19:58:36.740Z,21.45
2022-10-13T20:01:06.720Z,32.28
2022-10-13T20:03:34.183Z,30.38
2022-10-13T20:06:05.565Z,31.58
2022-10-13T20:08:32.814Z,27.50
2022-10-13T20:11:06.567Z,27.52
2022-10-13T20:13:33.907Z,28.42
2022-10-13T20:16:08.787Z,25.45
2022-10-13T20:18:36.143Z,27.75
2022-10-13T20:21:08.899Z,28.17
2022-10-13T20:23:36.225Z,30.25
2022-10-13T20:26:05.476Z,35.38
2022-10-13T20:28:32.767Z,34.67
2022-10-13T20:31:03.033Z,30.98
2022-10-13T20:33:31.210Z,31.48
2022-10-13T20:36:00.336Z,35.53
2022-10-13T20:38:29.494Z,35.65
2022-10-13T20:41:18.056Z,36.33
2022-10-13T20:43:46.539Z,38.40
2022-10-13T20:46:16.034Z,33.88
2022-10-13T20:51:31.171Z,33.10
2022-10-13T20:53:58.664Z,35.00
2022-10-13T20:56:29.664Z,30.67
2022-10-13T20:58:57.583Z,33.40
2022-10-13T21:01:24.637Z,31.17
2022-10-13T21:03:55.597Z,27.55
2022-10-13T21:06:24.564Z,35.05
2022-10-13T21:08:52.400Z,31.83
2022-10-13T21:11:21.787Z,31.50
2022-10-13T21:13:49.831Z,33.30
2022-10-13T21:16:28.305Z,36.45
2022-10-13T21:18:57.235Z,40.13
2022-10-13T21:21:27.221Z,39.67
2022-10-13T21:24:04.123Z,36.13
2022-10-13T21:26:32.936Z,33.47
2022-10-13T21:29:01.483Z,34.20
2022-10-13T21:31:29.228Z,37.25
2022-10-13T21:33:59.150Z,40.20
2022-10-13T21:36:29.603Z,43.88
2022-10-13T21:38:59.784Z,43.15
2022-10-13T21:41:28.225Z,42.90
2022-10-13T21:43:56.157Z,47.80
2022-10-13T21:46:28.563Z,45.90
2022-10-13T21:49:00.321Z,49.10
2022-10-13T21:51:38.785Z,39.05
2022-10-13T21:54:12.195Z,42.45
2022-10-13T21:56:40.159Z,62.42
2022-10-13T21:59:07.868Z,43.90
2022-10-13T22:01:35.073Z,43.00
2022-10-13T22:04:02.919Z,69.78
2022-10-13T22:06:31.898Z,55.60
2022-10-13T22:09:01.724Z,66.60
2022-10-13T22:11:31.215Z,57.75
2022-10-13T22:13:59.215Z,44.40
2022-10-13T22:16:42.158Z,52.10
2022-10-13T22:19:09.278Z,61.83
2022-10-13T22:21:43.235Z,60.78
2022-10-13T22:24:16.314Z,66.43
2022-10-13T22:26:44.912Z,53.80
2022-10-13T22:29:14.698Z,54.55
2022-10-13T22:31:42.264Z,56.88
2022-10-13T22:34:10.443Z,70.43
2022-10-13T22:36:41.045Z,48.58
2022-10-13T22:39:11.045Z,48.47
2022-10-13T22:41:38.112Z,65.93
2022-10-13T22:44:05.233Z,58.97
2022-10-13T22:46:34.636Z,44.15
2022-10-13T22:49:02.193Z,80.65
2022-10-13T22:51:30.795Z,63.85
2022-10-13T22:53:58.544Z,64.35
2022-10-13T22:56:28.917Z,44.25
2022-10-13T22:58:58.329Z,70.72
2022-10-13T23:01:26.369Z,43.40
2022-10-13T23:03:55.836Z,66.25
2022-10-13T23:06:27.134Z,75.05
2022-10-13T23:08:54.815Z,81.35
2022-10-13T23:11:22.856Z,56.80
2022-10-13T23:13:50.286Z,74.55
2022-10-13T23:16:20.493Z,51.45
2022-10-13T23:18:48.057Z,54.97
2022-10-13T23:21:17.746Z,52.38
2022-10-13T23:23:45.560Z,69.78
2022-10-13T23:26:16.285Z,73.70
2022-10-13T23:28:44.411Z,39.25
2022-10-13T23:31:16.611Z,54.45
2022-10-13T23:33:44.628Z,43.28
2022-10-13T23:36:22.323Z,56.15
2022-10-13T23:38:58.042Z,32.85
2022-10-13T23:41:25.919Z,40.97
2022-10-13T23:43:52.967Z,69.53
2022-10-13T23:46:20.046Z,42.40
2022-10-13T23:48:47.651Z,39.95
2022-10-13T23:51:18.046Z,47.83
2022-10-13T23:53:46.161Z,40.20
2022-10-13T23:56:14.066Z,79.90
2022-10-13T23:58:43.198Z,62.10
